Sibirskiy-2112 — UBXE8 — position and weather

sailwx.info

Track history (hours):
 
Tides and Currents Weather Stations Pressure Air Temp Water Temp Dewpoint Dewpoint Depression Visibility Wind Speed Wind Dir Waves Ship Positions

Sibirskiy-2112

Last reported at 2015-Apr-02 20:32 UTC. Time now 2015-May-25 09:28 UTC.
Position N 44°20' E 035°01'.
Warning: this ship's position is 52 days out of date.

Length 129 m; draft 3 m.

Type: Cargo ship. MMSI: 273342420.

Date/timePositionNaut miles runAvg speedWind from/ knotsBaromVisibWave heightAir tempDewpointWater temp
2015-Apr-02 20:32N 44°20' E 035°01'9 6.4
2015-Apr-02 19:05N 44°13' E 034°52'9 6.0
2015-Apr-02 17:32N 44°07' E 034°42'6 5.7
2015-Apr-02 16:29N 44°04' E 034°35'308 7.3
2015-Mar-31 22:13N 40°60' E 028°60'3 5.1
2015-Mar-31 21:33N 40°56' E 028°60'5 5.3
2015-Mar-31 20:33N 40°51' E 029°02'2 1.7
2015-Mar-31 19:27N 40°49' E 029°03'0 0.3
2015-Mar-31 18:29N 40°49' E 029°02'0 0.1
2015-Mar-31 17:31N 40°49' E 029°02'0 0.1
2015-Mar-31 16:26N 40°49' E 029°02'0 0.1
2015-Mar-31 15:24N 40°49' E 029°02'0 0.2
2015-Mar-31 14:30N 40°49' E 029°02'0 0.3
2015-Mar-31 13:29N 40°49' E 029°02'0 0.3
2015-Mar-31 12:31N 40°49' E 029°01'1 0.4
2015-Mar-31 11:10N 40°49' E 029°01'0 0.4
2015-Mar-31 10:09N 40°50' E 029°00'4 1.6
2015-Mar-31 07:33N 40°47' E 029°05'1 0.7
2015-Mar-31 06:31N 40°48' E 029°04'0 0.5
2015-Mar-31 05:29N 40°48' E 029°03'1 0.6
2015-Mar-31 04:29N 40°48' E 029°03'1 0.5
2015-Mar-31 03:30N 40°48' E 029°02'2 1.6
2015-Mar-31 02:33N 40°46' E 029°02'6 6.3
2015-Mar-31 01:33N 40°45' E 029°10'7 7.4
2015-Mar-31 00:33N 40°45' E 029°20'  
2015-Mar-25 15:31N 40°45' E 029°28'6 6.2
2015-Mar-25 14:33N 40°44' E 029°21'6 6.3
2015-Mar-25 13:33N 40°45' E 029°12'0 0.3
2015-Mar-25 12:31N 40°44' E 029°12'0 0.4
2015-Mar-25 11:33N 40°44' E 029°12'1 0.6
2015-Mar-25 10:30N 40°44' E 029°13'1 0.9
2015-Mar-25 09:33N 40°44' E 029°14'1 1.3
2015-Mar-25 08:33N 40°44' E 029°16'1 1.2
2015-Mar-25 07:33N 40°44' E 029°15'7 6.8
2015-Mar-25 06:33N 40°44' E 029°06'10 7.7
2015-Mar-25 05:16N 40°44' E 028°53'  
Track history (hours):
 
Tides and Currents Weather Stations Pressure Air Temp Water Temp Dewpoint Dewpoint Depression Visibility Wind Speed Wind Dir Waves Ship Positions

Sibirskiy-2112

Last reported at 2015-Apr-02 20:32 UTC. Time now 2015-May-25 09:28 UTC.
Position N 44°20' E 035°01'.
Warning: this ship's position is 52 days out of date.

Length 129 m; draft 3 m.

Type: Cargo ship. MMSI: 273342420.

Date/timePositionNaut miles runAvg speedWind from/ knotsBaromVisibWave heightAir tempDewpointWater temp
2015-Apr-02 20:32N 44°20' E 035°01'9 6.4
2015-Apr-02 19:05N 44°13' E 034°52'9 6.0
2015-Apr-02 17:32N 44°07' E 034°42'6 5.7
2015-Apr-02 16:29N 44°04' E 034°35'308 7.3
2015-Mar-31 22:13N 40°60' E 028°60'3 5.1
2015-Mar-31 21:33N 40°56' E 028°60'5 5.3
2015-Mar-31 20:33N 40°51' E 029°02'2 1.7
2015-Mar-31 19:27N 40°49' E 029°03'0 0.3
2015-Mar-31 18:29N 40°49' E 029°02'0 0.1
2015-Mar-31 17:31N 40°49' E 029°02'0 0.1
2015-Mar-31 16:26N 40°49' E 029°02'0 0.1
2015-Mar-31 15:24N 40°49' E 029°02'0 0.2
2015-Mar-31 14:30N 40°49' E 029°02'0 0.3
2015-Mar-31 13:29N 40°49' E 029°02'0 0.3
2015-Mar-31 12:31N 40°49' E 029°01'1 0.4
2015-Mar-31 11:10N 40°49' E 029°01'0 0.4
2015-Mar-31 10:09N 40°50' E 029°00'4 1.6
2015-Mar-31 07:33N 40°47' E 029°05'1 0.7
2015-Mar-31 06:31N 40°48' E 029°04'0 0.5
2015-Mar-31 05:29N 40°48' E 029°03'1 0.6
2015-Mar-31 04:29N 40°48' E 029°03'1 0.5
2015-Mar-31 03:30N 40°48' E 029°02'2 1.6
2015-Mar-31 02:33N 40°46' E 029°02'6 6.3
2015-Mar-31 01:33N 40°45' E 029°10'7 7.4
2015-Mar-31 00:33N 40°45' E 029°20'  
2015-Mar-25 15:31N 40°45' E 029°28'6 6.2
2015-Mar-25 14:33N 40°44' E 029°21'6 6.3
2015-Mar-25 13:33N 40°45' E 029°12'0 0.3
2015-Mar-25 12:31N 40°44' E 029°12'0 0.4
2015-Mar-25 11:33N 40°44' E 029°12'1 0.6
2015-Mar-25 10:30N 40°44' E 029°13'1 0.9
2015-Mar-25 09:33N 40°44' E 029°14'1 1.3
2015-Mar-25 08:33N 40°44' E 029°16'1 1.2
2015-Mar-25 07:33N 40°44' E 029°15'7 6.8
2015-Mar-25 06:33N 40°44' E 029°06'10 7.7
2015-Mar-25 05:16N 40°44' E 028°53'  

Dump ship's entire track history